»·PEaware :: QXE2547 KSEA-KPDX

QXE2547 :: KSEA-KPDX

FLIGHT INFORMATION

Flight Status: Arrived
Operator:
Horizon Air
More flights by this operator :: More flights under this callsign
Pilot: Trevel L P. (20826)
Aircraft: DEHAVILLAND DASH 8 400
(DH8D)
More flights by this aircraft type
Origin: KSEA Seattle-Tacoma Intl
United States
Destination: KPDX Portland Intl
United States
More flights between these airports :: More routes between these airports
Route: SEA7 BUWZO KRATR2
File this flight plan on PilotEdge
Remarks: RMK / SIMBRIEF
Altitude:
(Current/Filed)
19,000ft
Speed:
(Current/Filed)
307kts
Departed: 02-Feb-21 08:09 PM
Arrived: 02-Feb-21 08:44 PM
Distance/Time
Traveled:
112nm/0:35
Distance/Time
To Go:
Arrived

Flight Plot

Page will automatically refresh every two minutes.

Flight plan parsing failed; only flown route is shown


Map Options




Map Legend


Flown Route
Filed Route
Departure Airport
Arrival Airport
Navaid (VOR, NDB)
Fix

Horizontal Profiles

Position Reports

Time Latitude Longitude Heading Altitude Ground
Speed
02-Feb-21 19:36 47.440474 -122.303278 335 440ft 0kts
02-Feb-21 19:37 47.440474 -122.303278 335 440ft 0kts
02-Feb-21 19:38 47.440474 -122.303278 335 440ft 0kts
02-Feb-21 19:39 47.440474 -122.303278 335 440ft 0kts
02-Feb-21 19:40 47.440475 -122.303278 335 440ft 0kts
02-Feb-21 19:41 47.440475 -122.303278 335 440ft 0kts
02-Feb-21 19:42 47.440475 -122.303278 335 440ft 0kts
02-Feb-21 19:43 47.440475 -122.303278 335 440ft 0kts
02-Feb-21 19:44 47.440475 -122.303278 335 440ft 0kts
02-Feb-21 19:45 47.440475 -122.303278 335 440ft 0kts
02-Feb-21 19:46 47.440475 -122.303278 335 440ft 0kts
02-Feb-21 19:47 47.440475 -122.303278 335 440ft 0kts
02-Feb-21 19:48 47.440475 -122.303278 335 440ft 0kts
02-Feb-21 19:49 47.440475 -122.303278 335 440ft 0kts
02-Feb-21 19:50 47.440475 -122.303278 335 440ft 0kts
02-Feb-21 19:51 47.440068 -122.302875 309 440ft 2kts
02-Feb-21 19:52 47.440020 -122.302242 243 440ft 0kts
02-Feb-21 19:53 47.440020 -122.302242 243 440ft 0kts
02-Feb-21 19:54 47.440020 -122.302242 243 440ft 0kts
02-Feb-21 19:55 47.440020 -122.302242 243 440ft 0kts
02-Feb-21 19:56 47.440020 -122.302242 243 440ft 0kts
02-Feb-21 19:57 47.440020 -122.302242 243 440ft 0kts
02-Feb-21 19:58 47.440020 -122.302242 243 440ft 0kts
02-Feb-21 19:59 47.439953 -122.302547 250 440ft 0kts
02-Feb-21 20:00 47.440761 -122.306185 0 440ft 0kts
02-Feb-21 20:01 47.442028 -122.306157 1 440ft 0kts
02-Feb-21 20:02 47.447022 -122.306186 0 440ft 0kts
02-Feb-21 20:03 47.452975 -122.306205 0 440ft 0kts
02-Feb-21 20:04 47.457637 -122.306167 359 440ft 0kts
02-Feb-21 20:05 47.462560 -122.306264 336 440ft 0kts
02-Feb-21 20:06 47.462518 -122.307734 182 440ft 0kts
02-Feb-21 20:07 47.440390 -122.307441 170 1435ft 26kts
02-Feb-21 20:08 47.397416 -122.308194 176 3073ft 90kts
02-Feb-21 20:09 47.331239 -122.301652 180 4705ft 112kts
02-Feb-21 20:10 47.268945 -122.298737 178 5629ft 132kts
02-Feb-21 20:11 47.215645 -122.296464 181 5041ft 185kts
02-Feb-21 20:12 47.148702 -122.299694 182 4977ft 187kts
02-Feb-21 20:14 47.088040 -122.302512 182 6935ft 177kts
02-Feb-21 20:15 47.035019 -122.304866 182 10475ft 175kts
02-Feb-21 20:16 46.983936 -122.306817 188 13053ft 191kts
02-Feb-21 20:17 46.929061 -122.310296 187 14909ft 190kts
02-Feb-21 20:18 46.859312 -122.310424 187 15103ft 212kts
02-Feb-21 20:19 46.787411 -122.309089 186 17855ft 212kts
02-Feb-21 20:20 46.720698 -122.309616 188 18873ft 239kts
02-Feb-21 20:21 46.645656 -122.309954 185 18891ft 291kts
02-Feb-21 20:22 46.558461 -122.309783 185 18904ft 291kts
02-Feb-21 20:23 46.465888 -122.309839 185 17718ft 326kts
02-Feb-21 20:24 46.373007 -122.309624 185 15904ft 306kts
02-Feb-21 20:25 46.284413 -122.309442 185 14111ft 300kts
02-Feb-21 20:26 46.209841 -122.335598 206 12277ft 268kts
02-Feb-21 20:27 46.145125 -122.372078 205 10387ft 249kts
02-Feb-21 20:28 46.088991 -122.403060 204 9863ft 205kts
02-Feb-21 20:28 46.046914 -122.426109 205 9325ft 205kts
02-Feb-21 20:30 45.989727 -122.457197 204 8208ft 231kts
02-Feb-21 20:31 45.932708 -122.490152 213 7072ft 215kts
02-Feb-21 20:31 45.897563 -122.531531 222 6285ft 206kts
02-Feb-21 20:33 45.849793 -122.591294 220 5130ft 197kts
02-Feb-21 20:33 45.815635 -122.634080 221 4439ft 197kts
02-Feb-21 20:34 45.772112 -122.691904 229 3464ft 201kts
02-Feb-21 20:35 45.760455 -122.764782 280 2942ft 182kts
02-Feb-21 20:36 45.738140 -122.815786 206 2993ft 158kts
02-Feb-21 20:37 45.693063 -122.828631 152 3000ft 149kts
02-Feb-21 20:38 45.662853 -122.768136 125 2740ft 165kts
02-Feb-21 20:39 45.641982 -122.715946 124 1786ft 153kts
02-Feb-21 20:40 45.626511 -122.673929 123 1688ft 112kts
02-Feb-21 20:41 45.609935 -122.634572 121 717ft 115kts
02-Feb-21 20:42 45.595108 -122.596200 122 53ft 108kts
02-Feb-21 20:43 45.588727 -122.582197 211 38ft 31kts
02-Feb-21 20:44 45.589047 -122.586552 302 39ft 17kts
02-Feb-21 20:45 45.589967 -122.590116 209 38ft 0kts
02-Feb-21 20:46 45.589797 -122.590254 209 38ft 0kts
02-Feb-21 20:47 45.589797 -122.590254 209 38ft 0kts
02-Feb-21 20:48 45.589797 -122.590254 209 38ft 0kts
02-Feb-21 20:49 45.589797 -122.590254 209 38ft 0kts
02-Feb-21 20:50 45.589797 -122.590254 209 38ft 0kts

Navigation Log

Ident Type
Flight plan parsing failed, navigation log unavailable